createdAt,value
2022-07-25T00:01:22.466Z,100378.72
2022-07-25T00:03:51.951Z,100381.13
2022-07-25T00:06:21.710Z,100382.50
2022-07-25T00:08:49.838Z,100380.09
2022-07-25T00:11:19.183Z,100383.22
2022-07-25T00:13:47.527Z,100378.69
2022-07-25T00:16:15.745Z,100374.84
2022-07-25T00:18:43.978Z,100375.13
2022-07-25T00:21:12.390Z,100378.31
2022-07-25T00:23:42.162Z,100375.91
2022-07-25T00:26:10.301Z,100373.88
2022-07-25T00:28:38.599Z,100373.88
2022-07-25T00:31:07.133Z,100370.75
2022-07-25T00:33:35.412Z,100368.00
2022-07-25T00:36:03.611Z,100368.94
2022-07-25T00:38:32.706Z,100375.59
2022-07-25T00:41:02.209Z,100375.47
2022-07-25T00:43:30.367Z,100374.16
2022-07-25T00:45:59.739Z,100374.88
2022-07-25T00:48:29.352Z,100375.59
2022-07-25T00:50:58.044Z,100363.69
2022-07-25T00:53:27.093Z,100364.53
2022-07-25T00:55:56.271Z,100375.75
2022-07-25T00:58:25.870Z,100377.00
2022-07-25T01:00:54.462Z,100373.25
2022-07-25T01:03:22.903Z,100370.13
2022-07-25T01:05:53.946Z,100373.06
2022-07-25T01:08:23.650Z,100367.19
2022-07-25T01:10:51.934Z,100369.03
2022-07-25T01:13:20.909Z,100369.50
2022-07-25T01:15:50.666Z,100363.41
2022-07-25T01:18:19.235Z,100358.91
2022-07-25T01:20:49.152Z,100360.44
2022-07-25T01:23:17.301Z,100357.00
2022-07-25T01:25:45.911Z,100355.09
2022-07-25T01:28:14.171Z,100359.28
2022-07-25T01:30:42.333Z,100360.81
2022-07-25T01:33:10.549Z,100362.78
2022-07-25T01:35:43.298Z,100358.03
2022-07-25T01:38:13.961Z,100357.31
2022-07-25T01:40:42.495Z,100349.88
2022-07-25T01:43:11.029Z,100348.69
2022-07-25T01:45:39.507Z,100347.22
2022-07-25T01:48:08.233Z,100348.44
2022-07-25T01:50:36.470Z,100342.06
2022-07-25T01:53:05.382Z,100350.28
2022-07-25T01:55:35.379Z,100355.44
2022-07-25T01:58:05.311Z,100347.34
2022-07-25T02:00:35.719Z,100346.63
2022-07-25T02:03:21.591Z,100347.50
2022-07-25T02:05:49.685Z,100339.28
2022-07-25T02:08:17.863Z,100344.44
2022-07-25T02:10:47.703Z,100340.88
2022-07-25T02:13:15.951Z,100342.34
2022-07-25T02:15:44.226Z,100342.97
2022-07-25T02:18:12.450Z,100335.88
2022-07-25T02:20:40.588Z,100339.53
2022-07-25T02:23:08.809Z,100335.53
2022-07-25T02:25:37.062Z,100340.28
2022-07-25T02:28:06.694Z,100342.41
2022-07-25T02:30:35.157Z,100340.94
2022-07-25T02:33:03.465Z,100340.47
2022-07-25T02:35:31.638Z,100345.84
2022-07-25T02:37:59.863Z,100339.72
2022-07-25T02:40:28.153Z,100341.69
2022-07-25T02:42:56.330Z,100325.09
2022-07-25T02:45:26.101Z,100336.56
2022-07-25T02:47:54.406Z,100339.63
2022-07-25T02:50:22.624Z,100342.22
2022-07-25T02:52:50.801Z,100339.78
2022-07-25T02:55:19.044Z,100345.78
2022-07-25T02:57:47.190Z,100342.25
2022-07-25T03:00:17.086Z,100345.78
2022-07-25T03:02:46.994Z,100348.09
2022-07-25T03:05:16.933Z,100353.22
2022-07-25T03:07:46.135Z,100355.91
2022-07-25T03:10:16.403Z,100358.59
2022-07-25T03:12:45.921Z,100353.00
2022-07-25T03:15:14.946Z,100355.94
2022-07-25T03:17:43.554Z,100358.00
2022-07-25T03:20:13.533Z,100366.31
2022-07-25T03:22:42.670Z,100365.44
2022-07-25T03:25:15.858Z,100362.03
2022-07-25T03:27:50.803Z,100363.25
2022-07-25T03:30:19.130Z,100359.06
2022-07-25T03:32:47.828Z,100359.34
2022-07-25T03:35:17.457Z,100367.03
2022-07-25T03:37:45.721Z,100364.84
2022-07-25T03:40:15.877Z,100372.19
2022-07-25T03:42:44.474Z,100368.00
2022-07-25T03:45:12.681Z,100375.84
2022-07-25T03:47:40.843Z,100373.16
2022-07-25T03:50:09.645Z,100374.75
2022-07-25T03:52:39.538Z,100375.00
2022-07-25T03:55:09.232Z,100364.25
2022-07-25T03:57:37.670Z,100365.44
2022-07-25T04:00:08.520Z,100368.13
2022-07-25T04:02:37.616Z,100368.13
2022-07-25T04:05:06.913Z,100374.50
2022-07-25T04:07:35.199Z,100367.53
2022-07-25T04:10:05.175Z,100366.16
2022-07-25T04:12:33.704Z,100373.16
2022-07-25T04:15:02.236Z,100372.91
2022-07-25T04:17:30.449Z,100376.22
2022-07-25T04:19:58.869Z,100377.94
2022-07-25T04:22:27.280Z,100376.72
2022-07-25T04:24:55.433Z,100370.38
2022-07-25T04:27:25.142Z,100378.94
2022-07-25T04:29:53.329Z,100381.00
2022-07-25T04:32:23.667Z,100378.06
2022-07-25T04:34:52.840Z,100378.66
2022-07-25T04:37:20.947Z,100385.50
2022-07-25T04:39:49.293Z,100376.81
2022-07-25T04:42:17.811Z,100378.13
2022-07-25T04:44:47.290Z,100380.47
2022-07-25T04:47:15.499Z,100379.09
2022-07-25T04:49:43.731Z,100378.84
2022-07-25T04:52:11.852Z,100374.69
2022-07-25T04:54:40.077Z,100374.78
2022-07-25T04:57:08.357Z,100382.31
2022-07-25T04:59:36.500Z,100378.03
2022-07-25T05:02:06.197Z,100376.59
2022-07-25T05:04:35.029Z,100378.59
2022-07-25T05:07:03.327Z,100382.50
2022-07-25T05:09:31.481Z,100381.78
2022-07-25T05:12:00.332Z,100385.19
2022-07-25T05:14:28.567Z,100384.69
2022-07-25T05:16:56.876Z,100380.09
2022-07-25T05:19:27.118Z,100383.97
2022-07-25T05:21:55.281Z,100378.78
2022-07-25T05:24:23.574Z,100383.47
2022-07-25T05:26:52.023Z,100377.00
2022-07-25T05:29:20.362Z,100379.44
2022-07-25T05:31:48.566Z,100380.72
2022-07-25T05:34:16.761Z,100383.59
2022-07-25T05:36:47.439Z,100379.34
2022-07-25T05:39:15.736Z,100373.84
2022-07-25T05:41:43.935Z,100369.31
2022-07-25T05:44:12.345Z,100370.59
2022-07-25T05:46:40.606Z,100372.50
2022-07-25T05:49:09.108Z,100372.06
2022-07-25T05:51:37.277Z,100374.97
2022-07-25T05:54:07.579Z,100368.97
2022-07-25T05:56:36.067Z,100366.88
2022-07-25T05:59:04.273Z,100374.56
2022-07-25T06:01:32.627Z,100373.31
2022-07-25T06:04:00.825Z,100375.28
2022-07-25T06:06:32.757Z,100365.94
2022-07-25T06:09:00.966Z,100368.31
2022-07-25T06:11:31.620Z,100374.88
2022-07-25T06:14:00.440Z,100377.84
2022-07-25T06:16:28.669Z,100374.63
2022-07-25T06:18:56.929Z,100376.47
2022-07-25T06:21:25.013Z,100368.97
2022-07-25T06:23:53.275Z,100372.09
2022-07-25T06:26:21.506Z,100364.81
2022-07-25T06:28:51.095Z,100370.53
2022-07-25T06:31:20.398Z,100367.53
2022-07-25T06:33:48.615Z,100362.56
2022-07-25T06:36:16.789Z,100365.41
2022-07-25T06:38:45.040Z,100358.75
2022-07-25T06:41:15.938Z,100363.13
2022-07-25T06:43:44.360Z,100360.88
2022-07-25T06:46:13.851Z,100349.81
2022-07-25T06:48:42.138Z,100356.34
2022-07-25T06:51:10.362Z,100352.78
2022-07-25T06:53:38.568Z,100349.34
2022-07-25T06:56:07.439Z,100338.97
2022-07-25T06:58:35.679Z,100343.09
2022-07-25T07:01:03.844Z,100348.91
2022-07-25T07:03:38.284Z,100342.22
2022-07-25T07:06:07.358Z,100338.94
2022-07-25T07:08:35.580Z,100338.78
2022-07-25T07:11:03.866Z,100334.50
2022-07-25T07:13:32.206Z,100339.06
2022-07-25T07:16:01.014Z,100332.75
2022-07-25T07:18:29.209Z,100327.50
2022-07-25T07:20:58.765Z,100332.06
2022-07-25T07:23:27.363Z,100332.63
2022-07-25T07:25:57.539Z,100327.63
2022-07-25T07:28:25.791Z,100330.00
2022-07-25T07:33:42.331Z,100328.47
2022-07-25T07:36:12.157Z,100337.19
2022-07-25T07:38:40.399Z,100326.50
2022-07-25T07:41:09.215Z,100328.63
2022-07-25T07:43:37.558Z,100328.59
2022-07-25T07:46:05.854Z,100326.66
2022-07-25T07:48:34.935Z,100330.63
2022-07-25T07:51:03.744Z,100330.31
2022-07-25T07:53:51.032Z,100325.97
2022-07-25T07:56:20.107Z,100329.47
2022-07-25T07:58:48.382Z,100325.84
2022-07-25T08:01:16.698Z,100323.28
2022-07-25T08:03:44.854Z,100332.00
2022-07-25T08:06:13.104Z,100328.00
2022-07-25T08:08:42.727Z,100323.34
2022-07-25T08:11:10.907Z,100321.47
2022-07-25T08:13:39.196Z,100311.19
2022-07-25T08:16:08.983Z,100321.97
2022-07-25T08:18:37.157Z,100325.38
2022-07-25T08:21:07.218Z,100320.72
2022-07-25T08:23:35.830Z,100313.16
2022-07-25T08:26:05.753Z,100308.94
2022-07-25T08:28:34.227Z,100307.09
2022-07-25T08:31:02.442Z,100310.72
2022-07-25T08:33:31.450Z,100303.63
2022-07-25T08:36:00.195Z,100305.22
2022-07-25T08:38:29.646Z,100304.59
2022-07-25T08:40:58.948Z,100302.16
2022-07-25T08:43:32.998Z,100297.78
2022-07-25T08:46:03.005Z,100298.78
2022-07-25T08:51:30.651Z,100298.50
2022-07-25T08:53:59.163Z,100289.31
2022-07-25T08:56:27.384Z,100285.78
2022-07-25T08:58:59.004Z,100287.44
2022-07-25T09:01:31.470Z,100297.00
2022-07-25T09:04:03.999Z,100289.94
2022-07-25T09:06:32.434Z,100284.56
2022-07-25T09:09:04.738Z,100282.19
2022-07-25T09:11:35.259Z,100282.47
2022-07-25T09:14:08.463Z,100284.34
2022-07-25T09:16:40.468Z,100274.19
2022-07-25T09:19:14.557Z,100268.41
2022-07-25T09:21:46.474Z,100268.22
2022-07-25T09:24:17.067Z,100270.09
2022-07-25T09:26:46.679Z,100268.75
2022-07-25T09:29:20.890Z,100266.03
2022-07-25T09:31:49.236Z,100262.84
2022-07-25T09:34:32.307Z,100263.84
2022-07-25T09:37:00.682Z,100269.41
2022-07-25T09:39:46.132Z,100257.41
2022-07-25T09:42:23.588Z,100258.25
2022-07-25T09:45:05.783Z,100256.75
2022-07-25T09:47:36.353Z,100254.19
2022-07-25T09:50:05.357Z,100255.56
2022-07-25T09:52:33.901Z,100252.16
2022-07-25T09:55:04.594Z,100251.13
2022-07-25T09:57:32.862Z,100248.75
2022-07-25T10:00:03.120Z,100248.56
2022-07-25T10:02:49.836Z,100241.63
2022-07-25T10:05:28.854Z,100239.91
2022-07-25T10:07:58.721Z,100236.16
2022-07-25T10:10:28.944Z,100231.72
2022-07-25T10:13:10.128Z,100216.06
2022-07-25T10:15:45.922Z,100222.00
2022-07-25T10:18:14.711Z,100219.75
2022-07-25T10:20:43.975Z,100212.06
2022-07-25T10:23:24.138Z,100219.00
2022-07-25T10:26:03.476Z,100213.56
2022-07-25T10:28:40.739Z,100200.78
2022-07-25T10:31:25.141Z,100205.34
2022-07-25T10:33:55.906Z,100197.22
2022-07-25T10:36:25.120Z,100199.00
2022-07-25T10:38:58.274Z,100202.13
2022-07-25T10:41:30.036Z,100189.75
2022-07-25T10:44:03.039Z,100184.06
2022-07-25T10:46:36.105Z,100188.72
2022-07-25T10:49:07.932Z,100181.88
2022-07-25T10:51:41.846Z,100179.09
2022-07-25T10:54:15.508Z,100176.38
2022-07-25T10:56:53.942Z,100172.59
2022-07-25T10:59:33.701Z,100174.56
2022-07-25T11:02:04.397Z,100159.34
2022-07-25T11:04:32.915Z,100171.72
2022-07-25T11:07:09.780Z,100166.31
2022-07-25T11:09:38.519Z,100159.22
2022-07-25T11:12:07.613Z,100153.47
2022-07-25T11:14:37.981Z,100148.69
2022-07-25T11:17:15.911Z,100154.59
2022-07-25T11:19:46.348Z,100140.22
2022-07-25T11:22:14.611Z,100145.78
2022-07-25T11:24:44.978Z,100135.72
2022-07-25T11:27:23.769Z,100134.34
2022-07-25T11:29:52.513Z,100130.66
2022-07-25T11:32:22.120Z,100127.38
2022-07-25T11:34:52.326Z,100127.03
2022-07-25T11:37:21.514Z,100119.78
2022-07-25T11:39:50.238Z,100122.81
2022-07-25T11:42:20.376Z,100109.28
2022-07-25T11:44:50.993Z,100106.66
2022-07-25T11:47:28.938Z,100098.22
2022-07-25T11:49:58.623Z,100100.97
2022-07-25T11:52:29.921Z,100095.75
2022-07-25T11:55:00.816Z,100093.50
2022-07-25T11:57:31.210Z,100096.06
2022-07-25T12:00:01.336Z,100089.38
2022-07-25T12:02:38.474Z,100089.44
2022-07-25T12:05:09.332Z,100085.41
2022-07-25T12:07:41.810Z,100084.69
2022-07-25T12:10:12.457Z,100083.84
2022-07-25T12:12:50.577Z,100080.91
2022-07-25T12:15:22.218Z,100079.28
2022-07-25T12:17:52.803Z,100069.09
2022-07-25T12:20:22.955Z,100066.44
2022-07-25T12:22:52.656Z,100070.38
2022-07-25T12:25:21.179Z,100060.88
2022-07-25T12:27:49.664Z,100062.00
2022-07-25T12:30:18.453Z,100050.41
2022-07-25T12:32:46.808Z,100043.16
2022-07-25T12:35:16.396Z,100051.47
2022-07-25T12:37:45.535Z,100042.59
2022-07-25T12:40:16.559Z,100033.53
2022-07-25T12:42:45.817Z,100032.91
2022-07-25T12:45:15.706Z,100037.53
2022-07-25T12:47:44.415Z,100026.75
2022-07-25T12:50:13.509Z,100027.00
2022-07-25T12:52:43.866Z,100021.75
2022-07-25T12:55:14.721Z,100016.06
2022-07-25T12:57:44.031Z,100016.59
2022-07-25T13:00:15.696Z,100015.72
2022-07-25T13:02:44.142Z,100004.44
2022-07-25T13:05:12.830Z,100006.31
2022-07-25T13:07:42.565Z,100000.66
2022-07-25T13:10:12.634Z,99996.09
2022-07-25T13:12:40.844Z,99991.88
2022-07-25T13:15:09.994Z,99988.47
2022-07-25T13:17:38.483Z,99981.09
2022-07-25T13:20:07.654Z,99974.50
2022-07-25T13:22:35.863Z,99984.72
2022-07-25T13:25:05.931Z,99983.31
2022-07-25T13:27:34.178Z,99972.41
2022-07-25T13:30:02.337Z,99974.84
2022-07-25T13:32:31.858Z,99975.91
2022-07-25T13:34:59.993Z,99974.00
2022-07-25T13:37:28.312Z,99962.63
2022-07-25T13:39:56.439Z,99958.78
2022-07-25T13:42:26.155Z,99956.13
2022-07-25T13:44:54.603Z,99948.47
2022-07-25T13:47:25.743Z,99952.28
2022-07-25T13:49:58.119Z,99951.66
2022-07-25T13:52:26.323Z,99948.47
2022-07-25T13:54:54.517Z,99947.94
2022-07-25T13:57:22.652Z,99939.63
2022-07-25T13:59:52.202Z,99934.81
2022-07-25T14:02:20.457Z,99938.72
2022-07-25T14:04:48.601Z,99929.78
2022-07-25T14:07:16.806Z,99933.41
2022-07-25T14:09:44.900Z,99930.66
2022-07-25T14:12:13.017Z,99927.13
2022-07-25T14:14:41.154Z,99927.28
2022-07-25T14:17:10.772Z,99920.19
2022-07-25T14:19:39.004Z,99914.66
2022-07-25T14:22:07.251Z,99914.56
2022-07-25T14:24:35.417Z,99905.94
2022-07-25T14:27:04.086Z,99900.19
2022-07-25T14:29:32.237Z,99903.63
2022-07-25T14:32:00.589Z,99897.31
2022-07-25T14:34:30.159Z,99886.41
2022-07-25T14:36:58.371Z,99891.16
2022-07-25T14:39:26.595Z,99901.50
2022-07-25T14:41:54.771Z,99891.28
2022-07-25T14:44:23.071Z,99884.19
2022-07-25T14:46:51.348Z,99888.97
2022-07-25T14:49:19.536Z,99878.28
2022-07-25T14:51:49.539Z,99873.56
2022-07-25T14:54:18.399Z,99874.94
2022-07-25T14:56:46.636Z,99875.41
2022-07-25T14:59:14.898Z,99864.75
2022-07-25T15:01:43.019Z,99862.72
2022-07-25T15:04:11.273Z,99864.91
2022-07-25T15:06:39.589Z,99857.50
2022-07-25T15:09:10.122Z,99850.41
2022-07-25T15:11:38.678Z,99859.72
2022-07-25T15:14:06.852Z,99858.47
2022-07-25T15:16:35.080Z,99848.59
2022-07-25T15:19:16.512Z,99849.38
2022-07-25T15:21:45.553Z,99841.97
2022-07-25T15:24:15.208Z,99846.31
2022-07-25T15:26:43.677Z,99841.34
2022-07-25T15:29:13.590Z,99827.84
2022-07-25T15:31:41.884Z,99830.06
2022-07-25T15:34:10.115Z,99820.75
2022-07-25T15:36:38.222Z,99822.91
2022-07-25T15:39:06.857Z,99815.50
2022-07-25T15:41:37.218Z,99813.22
2022-07-25T15:44:05.805Z,99813.81
2022-07-25T15:46:34.361Z,99818.09
2022-07-25T15:49:04.269Z,99807.75
2022-07-25T15:51:32.700Z,99802.94
2022-07-25T15:54:00.885Z,99799.31
2022-07-25T15:56:31.911Z,99799.34
2022-07-25T15:59:01.478Z,99799.03
2022-07-25T16:01:29.807Z,99805.63
2022-07-25T16:03:59.889Z,99793.91
2022-07-25T16:06:30.077Z,99792.06
2022-07-25T16:08:58.293Z,99793.81
2022-07-25T16:11:26.449Z,99781.22
2022-07-25T16:13:55.077Z,99785.66
2022-07-25T16:16:25.795Z,99784.06
2022-07-25T16:18:54.186Z,99787.28
2022-07-25T16:21:22.514Z,99784.53
2022-07-25T16:23:50.688Z,99778.16
2022-07-25T16:26:18.799Z,99775.72
2022-07-25T16:28:48.768Z,99785.69
2022-07-25T16:31:17.780Z,99787.94
2022-07-25T16:33:47.736Z,99777.31
2022-07-25T16:36:16.078Z,99778.69
2022-07-25T16:38:45.253Z,99777.28
2022-07-25T16:41:13.734Z,99773.91
2022-07-25T16:43:41.780Z,99773.47
2022-07-25T16:46:10.656Z,99777.34
2022-07-25T16:48:39.143Z,99774.63
2022-07-25T16:51:08.895Z,99771.66
2022-07-25T16:53:37.421Z,99771.97
2022-07-25T16:56:06.542Z,99764.16
2022-07-25T16:58:34.986Z,99774.97
2022-07-25T17:01:03.174Z,99765.50
2022-07-25T17:03:31.633Z,99769.09
2022-07-25T17:05:59.813Z,99765.09
2022-07-25T17:08:31.914Z,99766.97
2022-07-25T17:11:00.346Z,99760.44
2022-07-25T17:13:28.645Z,99766.94
2022-07-25T17:15:56.895Z,99762.53
2022-07-25T17:18:25.441Z,99757.06
2022-07-25T17:20:54.684Z,99757.28
2022-07-25T17:23:23.486Z,99761.50
2022-07-25T17:25:53.591Z,99758.75
2022-07-25T17:28:22.872Z,99761.47
2022-07-25T17:30:51.603Z,99769.91
2022-07-25T17:33:19.892Z,99763.16
2022-07-25T17:35:48.105Z,99764.63
2022-07-25T17:38:16.283Z,99765.03
2022-07-25T17:40:44.409Z,99752.19
2022-07-25T17:43:13.892Z,99758.47
2022-07-25T17:45:42.344Z,99751.75
2022-07-25T17:48:10.473Z,99757.41
2022-07-25T17:50:38.685Z,99752.09
2022-07-25T17:53:06.817Z,99751.66
2022-07-25T17:55:38.791Z,99757.97
2022-07-25T17:58:07.598Z,99749.13
2022-07-25T18:00:37.096Z,99755.56
2022-07-25T18:03:05.731Z,99751.56
2022-07-25T18:05:34.419Z,99752.22
2022-07-25T18:08:03.188Z,99747.31
2022-07-25T18:10:31.942Z,99744.31
2022-07-25T18:13:02.069Z,99744.94
2022-07-25T18:15:30.567Z,99742.81
2022-07-25T18:18:00.321Z,99740.91
2022-07-25T18:20:29.247Z,99736.41
2022-07-25T18:22:58.681Z,99735.34
2022-07-25T18:25:27.408Z,99730.38
2022-07-25T18:27:55.604Z,99735.81
2022-07-25T18:30:28.875Z,99734.69
2022-07-25T18:32:57.557Z,99736.56
2022-07-25T18:35:27.083Z,99725.22
2022-07-25T18:37:55.477Z,99728.66
2022-07-25T18:40:23.621Z,99725.66
2022-07-25T18:42:51.787Z,99725.81
2022-07-25T18:45:21.109Z,99716.31
2022-07-25T18:47:50.001Z,99719.59
2022-07-25T18:50:20.358Z,99722.50
2022-07-25T18:52:49.969Z,99728.81
2022-07-25T18:55:18.085Z,99732.13
2022-07-25T18:57:46.504Z,99728.63
2022-07-25T19:00:15.159Z,99732.78
2022-07-25T19:02:43.345Z,99735.78
2022-07-25T19:05:11.740Z,99735.34
2022-07-25T19:07:41.007Z,99735.53
2022-07-25T19:10:11.492Z,99738.72
2022-07-25T19:12:40.183Z,99739.31
2022-07-25T19:15:09.474Z,99747.09
2022-07-25T19:17:38.242Z,99737.13
2022-07-25T19:20:07.529Z,99737.47
2022-07-25T19:22:35.696Z,99732.31
2022-07-25T19:25:07.569Z,99725.94
2022-07-25T19:27:37.204Z,99729.09
2022-07-25T19:30:07.072Z,99735.63
2022-07-25T19:32:35.545Z,99728.56
2022-07-25T19:35:03.778Z,99734.75
2022-07-25T19:37:32.046Z,99721.75
2022-07-25T19:40:00.469Z,99728.41
2022-07-25T19:42:28.688Z,99723.03
2022-07-25T19:44:58.407Z,99732.69
2022-07-25T19:47:26.871Z,99724.72
2022-07-25T19:49:55.043Z,99729.50
2022-07-25T19:52:23.283Z,99725.97
2022-07-25T19:54:51.409Z,99734.34
2022-07-25T19:57:19.691Z,99721.34
2022-07-25T19:59:47.757Z,99729.38
2022-07-25T20:02:17.432Z,99723.19
2022-07-25T20:04:45.752Z,99723.94
2022-07-25T20:07:13.918Z,99727.34
2022-07-25T20:09:42.038Z,99728.38
2022-07-25T20:12:10.395Z,99726.66
2022-07-25T20:14:38.705Z,99721.31
2022-07-25T20:17:08.129Z,99723.44
2022-07-25T20:19:44.567Z,99719.28
2022-07-25T20:22:12.850Z,99725.94
2022-07-25T20:24:40.941Z,99724.91
2022-07-25T20:27:09.106Z,99730.72
2022-07-25T20:29:37.272Z,99728.66
2022-07-25T20:32:06.493Z,99721.34
2022-07-25T20:34:34.808Z,99718.72
2022-07-25T20:37:04.522Z,99719.94
2022-07-25T20:39:32.963Z,99724.00
2022-07-25T20:42:02.599Z,99724.41
2022-07-25T20:44:30.948Z,99720.00
2022-07-25T20:46:59.099Z,99726.84
2022-07-25T20:49:27.462Z,99718.41
2022-07-25T20:51:55.688Z,99719.91
2022-07-25T20:54:25.289Z,99714.69
2022-07-25T20:56:53.541Z,99729.56
2022-07-25T20:59:21.621Z,99723.47
2022-07-25T21:01:49.861Z,99718.91
2022-07-25T21:04:19.048Z,99723.47
2022-07-25T21:06:47.543Z,99714.66
2022-07-25T21:09:16.642Z,99710.91
2022-07-25T21:11:46.258Z,99716.69
2022-07-25T21:14:14.553Z,99707.66
2022-07-25T21:16:42.682Z,99710.66
2022-07-25T21:19:11.272Z,99707.81
2022-07-25T21:21:39.965Z,99710.66
2022-07-25T21:24:11.887Z,99710.84
2022-07-25T21:26:40.553Z,99714.41
2022-07-25T21:29:11.330Z,99713.56
2022-07-25T21:31:40.034Z,99711.13
2022-07-25T21:34:08.259Z,99713.84
2022-07-25T21:36:36.492Z,99710.63
2022-07-25T21:39:05.324Z,99710.66
2022-07-25T21:41:33.901Z,99709.66
2022-07-25T21:44:02.059Z,99700.66
2022-07-25T21:46:31.763Z,99704.38
2022-07-25T21:49:17.154Z,99701.16
2022-07-25T21:52:04.351Z,99701.13
2022-07-25T21:54:32.533Z,99703.47
2022-07-25T21:57:00.644Z,99704.84
2022-07-25T21:59:28.786Z,99703.28
2022-07-25T22:01:58.406Z,99704.25
2022-07-25T22:04:26.616Z,99703.19
2022-07-25T22:06:54.894Z,99700.41
2022-07-25T22:09:23.252Z,99701.56
2022-07-25T22:11:51.425Z,99705.66
2022-07-25T22:14:19.610Z,99701.94
2022-07-25T22:16:47.752Z,99698.72
2022-07-25T22:19:21.948Z,99702.41
2022-07-25T22:21:50.828Z,99703.91
2022-07-25T22:24:18.962Z,99705.41
2022-07-25T22:26:47.242Z,99702.13
2022-07-25T22:29:15.341Z,99696.22
2022-07-25T22:31:44.514Z,99697.06
2022-07-25T22:34:12.737Z,99702.53
2022-07-25T22:36:42.282Z,99703.34
2022-07-25T22:39:11.897Z,99699.56
2022-07-25T22:41:40.330Z,99708.19
2022-07-25T22:44:08.549Z,99708.84
2022-07-25T22:46:36.680Z,99715.69
2022-07-25T22:49:05.474Z,99716.81
2022-07-25T22:51:34.471Z,99721.00
2022-07-25T22:54:04.114Z,99731.19
2022-07-25T22:56:32.560Z,99727.47
2022-07-25T22:59:00.746Z,99723.84
2022-07-25T23:01:29.003Z,99725.00
2022-07-25T23:03:57.091Z,99724.19
2022-07-25T23:06:25.369Z,99719.91
2022-07-25T23:08:53.606Z,99718.34
2022-07-25T23:11:23.148Z,99729.06
2022-07-25T23:13:51.397Z,99737.84
2022-07-25T23:16:19.932Z,99737.25
2022-07-25T23:18:48.280Z,99734.53
2022-07-25T23:21:16.387Z,99742.53
2022-07-25T23:23:44.625Z,99739.94
2022-07-25T23:26:12.848Z,99738.81
2022-07-25T23:28:42.476Z,99737.13
2022-07-25T23:31:10.972Z,99749.31
2022-07-25T23:33:39.171Z,99746.41
2022-07-25T23:36:07.688Z,99745.63
2022-07-25T23:38:35.785Z,99748.63
2022-07-25T23:41:03.948Z,99746.66
2022-07-25T23:43:57.481Z,99750.84
2022-07-25T23:46:27.582Z,99748.31
2022-07-25T23:48:56.330Z,99744.50
2022-07-25T23:51:24.692Z,99737.19
2022-07-25T23:53:52.814Z,99738.81
2022-07-25T23:56:21.418Z,99742.75
2022-07-25T23:58:50.253Z,99742.34
